BAW746 EGLL-LSGG
Flight info
| Callsign | BAW746 |
|---|---|
| Flight time | 1h 14m |
| Altitude | 39000 |
| Route | MODMI M185 MID UL612 VEULE DCT PEKIM DCT PILUL DCT PIMUP/N0422F270 DCT PIXIS DCT PIBAT/N0395F230 DCT LUSAR |
| Aircraft | A319/M-SDE3FGIJ1KRWXY/LB1 |
Departure
| Time | 2026-05-05 16:26 |
|---|---|
| Airport | London Heathrow Airport (EGLL) |
Arrival
| Time | 2026-05-05 17:41 |
|---|---|
| Airport | Geneva International Airport (LSGG) |
| Time | Latitude | Longitude | Altitude | Speed | Heading |
|---|---|---|---|---|---|
| 2026-05-05 15:58 | 51.47233 | -0.48588 | 86 ft | 0 kts | 270° |
| 2026-05-05 16:11 | 51.47233 | -0.48530 | 90 ft | 2 kts | 270° |
| 2026-05-05 16:12 | 51.47231 | -0.48496 | 89 ft | 4 kts | 297° |
| 2026-05-05 16:12 | 51.47195 | -0.48473 | 90 ft | 0 kts | 360° |
| 2026-05-05 16:14 | 51.47200 | -0.48473 | 90 ft | 3 kts | 360° |
| 2026-05-05 16:15 | 51.47263 | -0.48385 | 88 ft | 16 kts | 119° |
| 2026-05-05 16:15 | 51.46969 | -0.48356 | 86 ft | 13 kts | 180° |
| 2026-05-05 16:16 | 51.46883 | -0.48355 | 88 ft | 0 kts | 179° |
| 2026-05-05 16:17 | 51.46874 | -0.48354 | 86 ft | 3 kts | 179° |
| 2026-05-05 16:18 | 51.46822 | -0.48354 | 86 ft | 1 kts | 180° |
| 2026-05-05 16:20 | 51.46742 | -0.48409 | 86 ft | 15 kts | 252° |
| 2026-05-05 16:20 | 51.46647 | -0.48467 | 86 ft | 0 kts | 180° |
| 2026-05-05 16:22 | 51.46627 | -0.48467 | 86 ft | 4 kts | 180° |
| 2026-05-05 16:22 | 51.46588 | -0.48467 | 87 ft | 0 kts | 180° |
| 2026-05-05 16:24 | 51.46584 | -0.48467 | 87 ft | 3 kts | 180° |
| 2026-05-05 16:24 | 51.46480 | -0.48422 | 88 ft | 9 kts | 100° |
| 2026-05-05 16:25 | 51.46479 | -0.48370 | 87 ft | 0 kts | 89° |
| 2026-05-05 16:25 | 51.46479 | -0.48358 | 87 ft | 6 kts | 89° |
| 2026-05-05 16:25 | 51.46479 | -0.47958 | 87 ft | 67 kts | 89° |
| 2026-05-05 16:26 | 51.46490 | -0.45244 | 198 ft | 161 kts | 88° |
| 2026-05-05 16:26 | 51.46454 | -0.41724 | 1561 ft | 167 kts | 101° |
| 2026-05-05 16:27 | 51.45840 | -0.39971 | 1907 ft | 194 kts | 122° |
| 2026-05-05 16:27 | 51.44955 | -0.38151 | 2260 ft | 223 kts | 135° |
| 2026-05-05 16:27 | 51.43471 | -0.36994 | 2752 ft | 253 kts | 160° |
| 2026-05-05 16:27 | 51.41744 | -0.36102 | 3586 ft | 266 kts | 163° |
| 2026-05-05 16:28 | 51.39908 | -0.35884 | 4603 ft | 273 kts | 188° |
| 2026-05-05 16:28 | 51.38111 | -0.36910 | 5611 ft | 278 kts | 207° |
| 2026-05-05 16:28 | 51.36365 | -0.38304 | 6662 ft | 281 kts | 207° |
| 2026-05-05 16:28 | 51.34600 | -0.39709 | 7601 ft | 286 kts | 207° |
| 2026-05-05 16:29 | 51.32813 | -0.41124 | 8606 ft | 288 kts | 207° |
| 2026-05-05 16:29 | 51.30995 | -0.42558 | 9583 ft | 291 kts | 206° |
| 2026-05-05 16:29 | 51.29160 | -0.43995 | 10283 ft | 304 kts | 206° |
| 2026-05-05 16:29 | 51.27197 | -0.45532 | 10588 ft | 327 kts | 206° |
| 2026-05-05 16:30 | 51.25113 | -0.47185 | 11078 ft | 341 kts | 206° |
| 2026-05-05 16:30 | 51.22972 | -0.48899 | 11802 ft | 347 kts | 206° |
| 2026-05-05 16:30 | 51.20794 | -0.50624 | 12592 ft | 351 kts | 206° |
| 2026-05-05 16:30 | 51.18581 | -0.52350 | 13337 ft | 357 kts | 205° |
| 2026-05-05 16:31 | 51.16334 | -0.54085 | 14043 ft | 362 kts | 205° |
| 2026-05-05 16:31 | 51.14045 | -0.55846 | 14730 ft | 365 kts | 205° |
| 2026-05-05 16:31 | 51.11753 | -0.57609 | 15451 ft | 367 kts | 205° |
| 2026-05-05 16:31 | 51.09411 | -0.59158 | 16107 ft | 371 kts | 196° |
| 2026-05-05 16:32 | 51.06866 | -0.59865 | 16749 ft | 374 kts | 182° |
| 2026-05-05 16:32 | 51.04268 | -0.59587 | 17447 ft | 376 kts | 168° |
| 2026-05-05 16:32 | 51.01764 | -0.58345 | 18116 ft | 379 kts | 155° |
| 2026-05-05 16:32 | 50.99489 | -0.56213 | 18733 ft | 381 kts | 145° |
| 2026-05-05 16:33 | 50.97289 | -0.53841 | 19336 ft | 384 kts | 145° |
| 2026-05-05 16:33 | 50.95069 | -0.51457 | 19936 ft | 387 kts | 146° |
| 2026-05-05 16:33 | 50.92822 | -0.49058 | 20514 ft | 391 kts | 146° |
| 2026-05-05 16:33 | 50.90553 | -0.46645 | 21089 ft | 395 kts | 146° |
| 2026-05-05 16:34 | 50.88264 | -0.44221 | 21682 ft | 398 kts | 146° |
| 2026-05-05 16:34 | 50.85949 | -0.41777 | 22223 ft | 402 kts | 146° |
| 2026-05-05 16:34 | 50.83610 | -0.39308 | 22756 ft | 406 kts | 146° |
| 2026-05-05 16:34 | 50.81250 | -0.36815 | 23290 ft | 409 kts | 146° |
| 2026-05-05 16:35 | 50.78874 | -0.34305 | 23777 ft | 412 kts | 146° |
| 2026-05-05 16:35 | 50.76484 | -0.31783 | 24272 ft | 413 kts | 147° |
| 2026-05-05 16:35 | 50.74087 | -0.29260 | 24793 ft | 414 kts | 147° |
| 2026-05-05 16:35 | 50.71691 | -0.26737 | 25307 ft | 414 kts | 147° |
| 2026-05-05 16:36 | 50.69290 | -0.24210 | 25808 ft | 415 kts | 147° |
| 2026-05-05 16:36 | 50.66886 | -0.21689 | 26314 ft | 416 kts | 147° |
| 2026-05-05 16:36 | 50.64473 | -0.19159 | 26807 ft | 417 kts | 147° |
| 2026-05-05 16:36 | 50.62044 | -0.16615 | 27265 ft | 419 kts | 147° |
| 2026-05-05 16:37 | 50.59612 | -0.14072 | 27713 ft | 421 kts | 147° |
| 2026-05-05 16:37 | 50.57194 | -0.11545 | 28171 ft | 422 kts | 147° |
| 2026-05-05 16:37 | 50.54745 | -0.08985 | 28636 ft | 424 kts | 147° |
| 2026-05-05 16:37 | 50.52285 | -0.06416 | 29089 ft | 425 kts | 147° |
| 2026-05-05 16:38 | 50.49817 | -0.03844 | 29530 ft | 426 kts | 147° |
| 2026-05-05 16:38 | 50.47337 | -0.01269 | 29960 ft | 428 kts | 148° |
| 2026-05-05 16:38 | 50.44845 | 0.01311 | 30282 ft | 430 kts | 147° |
| 2026-05-05 16:38 | 50.42340 | 0.03904 | 30592 ft | 433 kts | 147° |
| 2026-05-05 16:39 | 50.39821 | 0.06511 | 30926 ft | 435 kts | 147° |
| 2026-05-05 16:39 | 50.37289 | 0.09132 | 31236 ft | 437 kts | 147° |
| 2026-05-05 16:39 | 50.34752 | 0.11757 | 31614 ft | 437 kts | 147° |
| 2026-05-05 16:39 | 50.32217 | 0.14374 | 32048 ft | 436 kts | 147° |
| 2026-05-05 16:40 | 50.29687 | 0.16981 | 32480 ft | 436 kts | 147° |
| 2026-05-05 16:40 | 50.27156 | 0.19590 | 32909 ft | 435 kts | 147° |
| 2026-05-05 16:40 | 50.24633 | 0.22187 | 33346 ft | 434 kts | 147° |
| 2026-05-05 16:40 | 50.22106 | 0.24780 | 33779 ft | 434 kts | 148° |
| 2026-05-05 16:41 | 50.19585 | 0.27359 | 34161 ft | 433 kts | 148° |
| 2026-05-05 16:41 | 50.17066 | 0.29936 | 34571 ft | 431 kts | 147° |
| 2026-05-05 16:41 | 50.14562 | 0.32506 | 34979 ft | 430 kts | 147° |
| 2026-05-05 16:41 | 50.12066 | 0.35073 | 35319 ft | 430 kts | 147° |
| 2026-05-05 16:42 | 50.09563 | 0.37643 | 35630 ft | 431 kts | 147° |
| 2026-05-05 16:42 | 50.07060 | 0.40211 | 35928 ft | 431 kts | 147° |
| 2026-05-05 16:42 | 50.04553 | 0.42783 | 36214 ft | 432 kts | 148° |
| 2026-05-05 16:42 | 50.02036 | 0.45361 | 36489 ft | 433 kts | 148° |
| 2026-05-05 16:43 | 49.99518 | 0.47928 | 36730 ft | 434 kts | 148° |
| 2026-05-05 16:43 | 49.96983 | 0.50507 | 36883 ft | 436 kts | 148° |
| 2026-05-05 16:43 | 49.91948 | 0.55619 | 36906 ft | 435 kts | 148° |
| 2026-05-05 16:44 | 49.86886 | 0.60764 | 36904 ft | 435 kts | 147° |
| 2026-05-05 16:44 | 49.82312 | 0.66875 | 36904 ft | 433 kts | 138° |
| 2026-05-05 16:45 | 49.77924 | 0.73275 | 36887 ft | 433 kts | 137° |
| 2026-05-05 16:45 | 49.73525 | 0.79657 | 36901 ft | 433 kts | 138° |
| 2026-05-05 16:46 | 49.69128 | 0.86020 | 36893 ft | 432 kts | 138° |
| 2026-05-05 16:46 | 49.64738 | 0.92365 | 36871 ft | 432 kts | 138° |
| 2026-05-05 16:47 | 49.60351 | 0.98696 | 36858 ft | 432 kts | 138° |
| 2026-05-05 16:47 | 49.55954 | 1.05016 | 36857 ft | 432 kts | 138° |
| 2026-05-05 16:48 | 49.51543 | 1.11312 | 36857 ft | 432 kts | 138° |
| 2026-05-05 16:48 | 49.47140 | 1.17602 | 36851 ft | 432 kts | 138° |
| 2026-05-05 16:49 | 49.42736 | 1.23892 | 36850 ft | 432 kts | 138° |
| 2026-05-05 16:49 | 49.38329 | 1.30177 | 36850 ft | 432 kts | 138° |
| 2026-05-05 16:50 | 49.33904 | 1.36443 | 36844 ft | 432 kts | 138° |
| 2026-05-05 16:50 | 49.29483 | 1.42686 | 36847 ft | 432 kts | 138° |
| 2026-05-05 16:51 | 49.25060 | 1.48919 | 36842 ft | 432 kts | 138° |
| 2026-05-05 16:51 | 49.20636 | 1.55139 | 36837 ft | 432 kts | 138° |
| 2026-05-05 16:52 | 49.16238 | 1.61307 | 36839 ft | 432 kts | 138° |
| 2026-05-05 16:52 | 49.11819 | 1.67511 | 36835 ft | 432 kts | 138° |
| 2026-05-05 16:53 | 49.07389 | 1.73712 | 36835 ft | 432 kts | 138° |
| 2026-05-05 16:53 | 49.02952 | 1.79877 | 36826 ft | 432 kts | 138° |
| 2026-05-05 16:54 | 48.98507 | 1.86053 | 36824 ft | 433 kts | 138° |
| 2026-05-05 16:54 | 48.94042 | 1.92234 | 36821 ft | 434 kts | 138° |
| 2026-05-05 16:55 | 48.89583 | 1.98406 | 36822 ft | 434 kts | 138° |
| 2026-05-05 16:55 | 48.85106 | 2.04583 | 36823 ft | 434 kts | 138° |
| 2026-05-05 16:56 | 48.80624 | 2.10760 | 36825 ft | 435 kts | 138° |
| 2026-05-05 16:56 | 48.76142 | 2.16910 | 36826 ft | 435 kts | 138° |
| 2026-05-05 16:57 | 48.71651 | 2.23048 | 36833 ft | 435 kts | 139° |
| 2026-05-05 16:57 | 48.67169 | 2.29163 | 36832 ft | 434 kts | 139° |
| 2026-05-05 16:58 | 48.62706 | 2.35232 | 36837 ft | 434 kts | 139° |
| 2026-05-05 16:58 | 48.58272 | 2.41256 | 36827 ft | 434 kts | 139° |
| 2026-05-05 16:59 | 48.53769 | 2.47353 | 36827 ft | 435 kts | 139° |
| 2026-05-05 16:59 | 48.49263 | 2.53451 | 36818 ft | 435 kts | 139° |
| 2026-05-05 17:00 | 48.45514 | 2.58513 | 36817 ft | 435 kts | 139° |
| 2026-05-05 17:00 | 48.41005 | 2.64587 | 36803 ft | 435 kts | 139° |
| 2026-05-05 17:01 | 48.36482 | 2.70662 | 36802 ft | 436 kts | 139° |
| 2026-05-05 17:01 | 48.31938 | 2.76739 | 36803 ft | 438 kts | 139° |
| 2026-05-05 17:02 | 48.27382 | 2.82798 | 36806 ft | 438 kts | 140° |
| 2026-05-05 17:02 | 48.22650 | 2.88542 | 36808 ft | 437 kts | 143° |
| 2026-05-05 17:03 | 48.18029 | 2.94466 | 36816 ft | 439 kts | 135° |
| 2026-05-05 17:03 | 48.13773 | 3.01027 | 36802 ft | 439 kts | 136° |
| 2026-05-05 17:04 | 48.09513 | 3.07598 | 36815 ft | 439 kts | 136° |
| 2026-05-05 17:04 | 48.05247 | 3.14154 | 36819 ft | 439 kts | 136° |
| 2026-05-05 17:05 | 48.00972 | 3.20700 | 36826 ft | 440 kts | 136° |
| 2026-05-05 17:05 | 47.96693 | 3.27230 | 36829 ft | 440 kts | 136° |
| 2026-05-05 17:06 | 47.92409 | 3.33744 | 36824 ft | 440 kts | 136° |
| 2026-05-05 17:06 | 47.88115 | 3.40267 | 36811 ft | 441 kts | 136° |
| 2026-05-05 17:07 | 47.83849 | 3.46725 | 36816 ft | 441 kts | 137° |
| 2026-05-05 17:07 | 47.79536 | 3.53232 | 36819 ft | 441 kts | 136° |
| 2026-05-05 17:08 | 47.75227 | 3.59733 | 36826 ft | 441 kts | 137° |
| 2026-05-05 17:08 | 47.70914 | 3.66223 | 36826 ft | 441 kts | 137° |
| 2026-05-05 17:09 | 47.66593 | 3.72709 | 36823 ft | 442 kts | 137° |
| 2026-05-05 17:09 | 47.62264 | 3.79195 | 36824 ft | 442 kts | 137° |
| 2026-05-05 17:10 | 47.57919 | 3.85676 | 36820 ft | 442 kts | 137° |
| 2026-05-05 17:10 | 47.53577 | 3.92135 | 36825 ft | 443 kts | 137° |
| 2026-05-05 17:11 | 47.49230 | 3.98586 | 36822 ft | 443 kts | 137° |
| 2026-05-05 17:11 | 47.44903 | 4.05007 | 36827 ft | 443 kts | 137° |
| 2026-05-05 17:12 | 47.40543 | 4.11458 | 36829 ft | 444 kts | 137° |
| 2026-05-05 17:12 | 47.36170 | 4.17910 | 36823 ft | 444 kts | 137° |
| 2026-05-05 17:13 | 47.31785 | 4.24344 | 36832 ft | 444 kts | 137° |
| 2026-05-05 17:13 | 47.27404 | 4.30766 | 36787 ft | 445 kts | 138° |
| 2026-05-05 17:14 | 47.25211 | 4.33980 | 36657 ft | 444 kts | 138° |
| 2026-05-05 17:14 | 47.23015 | 4.37196 | 36530 ft | 444 kts | 138° |
| 2026-05-05 17:14 | 47.20826 | 4.40398 | 36406 ft | 444 kts | 138° |
| 2026-05-05 17:14 | 47.18634 | 4.43599 | 36280 ft | 444 kts | 138° |
| 2026-05-05 17:15 | 47.16439 | 4.46795 | 36155 ft | 444 kts | 138° |
| 2026-05-05 17:15 | 47.14246 | 4.49982 | 36000 ft | 444 kts | 138° |
| 2026-05-05 17:15 | 47.12045 | 4.53179 | 35261 ft | 448 kts | 138° |
| 2026-05-05 17:15 | 47.09811 | 4.56417 | 34468 ft | 452 kts | 138° |
| 2026-05-05 17:16 | 47.07564 | 4.59673 | 33615 ft | 456 kts | 138° |
| 2026-05-05 17:16 | 47.05325 | 4.62917 | 32714 ft | 458 kts | 138° |
| 2026-05-05 17:16 | 47.03068 | 4.66189 | 32014 ft | 454 kts | 138° |
| 2026-05-05 17:16 | 47.00824 | 4.69434 | 31401 ft | 449 kts | 138° |
| 2026-05-05 17:17 | 46.98615 | 4.72621 | 30846 ft | 443 kts | 138° |
| 2026-05-05 17:17 | 46.96429 | 4.75768 | 30289 ft | 438 kts | 138° |
| 2026-05-05 17:17 | 46.94273 | 4.78870 | 29692 ft | 432 kts | 138° |
| 2026-05-05 17:17 | 46.92143 | 4.81933 | 29118 ft | 425 kts | 138° |
| 2026-05-05 17:18 | 46.90051 | 4.84941 | 28577 ft | 419 kts | 138° |
| 2026-05-05 17:18 | 46.87990 | 4.87900 | 28045 ft | 412 kts | 138° |
| 2026-05-05 17:18 | 46.85957 | 4.90809 | 27497 ft | 406 kts | 139° |
| 2026-05-05 17:18 | 46.83953 | 4.93668 | 27000 ft | 400 kts | 139° |
| 2026-05-05 17:19 | 46.81974 | 4.96491 | 26492 ft | 395 kts | 139° |
| 2026-05-05 17:19 | 46.80024 | 4.99271 | 25997 ft | 390 kts | 139° |
| 2026-05-05 17:19 | 46.78095 | 5.02025 | 25503 ft | 386 kts | 139° |
| 2026-05-05 17:19 | 46.76180 | 5.04757 | 24982 ft | 383 kts | 139° |
| 2026-05-05 17:20 | 46.74278 | 5.07462 | 24477 ft | 381 kts | 140° |
| 2026-05-05 17:20 | 46.72381 | 5.10151 | 24000 ft | 379 kts | 140° |
| 2026-05-05 17:20 | 46.70493 | 5.12829 | 23554 ft | 377 kts | 140° |
| 2026-05-05 17:20 | 46.68690 | 5.15604 | 23052 ft | 379 kts | 132° |
| 2026-05-05 17:21 | 46.67257 | 5.18838 | 22844 ft | 383 kts | 121° |
| 2026-05-05 17:21 | 46.66267 | 5.22415 | 22889 ft | 390 kts | 110° |
| 2026-05-05 17:21 | 46.65640 | 5.26323 | 22884 ft | 392 kts | 106° |
| 2026-05-05 17:22 | 46.64488 | 5.33966 | 21876 ft | 387 kts | 106° |
| 2026-05-05 17:22 | 46.63907 | 5.37780 | 21360 ft | 385 kts | 106° |
| 2026-05-05 17:22 | 46.63326 | 5.41570 | 20852 ft | 382 kts | 106° |
| 2026-05-05 17:22 | 46.62748 | 5.45337 | 20331 ft | 379 kts | 106° |
| 2026-05-05 17:23 | 46.62175 | 5.49070 | 19811 ft | 377 kts | 106° |
| 2026-05-05 17:23 | 46.61606 | 5.52744 | 19296 ft | 374 kts | 106° |
| 2026-05-05 17:23 | 46.61026 | 5.56456 | 18781 ft | 372 kts | 106° |
| 2026-05-05 17:23 | 46.60454 | 5.60104 | 18276 ft | 369 kts | 106° |
| 2026-05-05 17:24 | 46.59884 | 5.63728 | 17834 ft | 366 kts | 106° |
| 2026-05-05 17:24 | 46.59318 | 5.67326 | 17239 ft | 364 kts | 106° |
| 2026-05-05 17:24 | 46.58755 | 5.70905 | 16666 ft | 362 kts | 106° |
| 2026-05-05 17:24 | 46.58195 | 5.74461 | 16127 ft | 360 kts | 106° |
| 2026-05-05 17:25 | 46.57468 | 5.77915 | 15605 ft | 353 kts | 117° |
| 2026-05-05 17:25 | 46.56735 | 5.80003 | 15296 ft | 348 kts | 125° |
| 2026-05-05 17:25 | 46.54735 | 5.83606 | 14631 ft | 339 kts | 141° |
| 2026-05-05 17:25 | 46.52888 | 5.85684 | 14137 ft | 334 kts | 149° |
| 2026-05-05 17:26 | 46.50999 | 5.87562 | 13636 ft | 332 kts | 149° |
| 2026-05-05 17:26 | 46.49107 | 5.89459 | 13105 ft | 330 kts | 149° |
| 2026-05-05 17:26 | 46.47230 | 5.91347 | 12585 ft | 327 kts | 149° |
| 2026-05-05 17:26 | 46.45363 | 5.93224 | 12077 ft | 325 kts | 149° |
| 2026-05-05 17:27 | 46.43551 | 5.95041 | 11597 ft | 323 kts | 149° |
| 2026-05-05 17:27 | 46.41709 | 5.96886 | 11107 ft | 320 kts | 149° |
| 2026-05-05 17:27 | 46.39893 | 5.98703 | 10845 ft | 311 kts | 149° |
| 2026-05-05 17:27 | 46.38172 | 6.00509 | 10715 ft | 300 kts | 142° |
| 2026-05-05 17:28 | 46.36950 | 6.02884 | 10583 ft | 292 kts | 118° |
| 2026-05-05 17:28 | 46.36490 | 6.05731 | 10463 ft | 293 kts | 95° |
| 2026-05-05 17:28 | 46.36852 | 6.08616 | 10335 ft | 291 kts | 69° |
| 2026-05-05 17:28 | 46.37918 | 6.11071 | 10213 ft | 286 kts | 53° |
| 2026-05-05 17:29 | 46.39119 | 6.13333 | 10042 ft | 281 kts | 53° |
| 2026-05-05 17:29 | 46.40324 | 6.15560 | 9727 ft | 280 kts | 53° |
| 2026-05-05 17:29 | 46.41527 | 6.17779 | 9375 ft | 280 kts | 53° |
| 2026-05-05 17:29 | 46.42728 | 6.19994 | 9003 ft | 278 kts | 53° |
| 2026-05-05 17:30 | 46.43917 | 6.22191 | 8578 ft | 276 kts | 53° |
| 2026-05-05 17:30 | 46.45096 | 6.24378 | 8124 ft | 275 kts | 53° |
| 2026-05-05 17:30 | 46.46274 | 6.26560 | 7698 ft | 274 kts | 53° |
| 2026-05-05 17:30 | 46.47418 | 6.28678 | 7536 ft | 259 kts | 52° |
| 2026-05-05 17:31 | 46.48494 | 6.30681 | 7225 ft | 252 kts | 53° |
| 2026-05-05 17:31 | 46.49565 | 6.32684 | 7007 ft | 249 kts | 53° |
| 2026-05-05 17:31 | 46.50630 | 6.34662 | 6994 ft | 249 kts | 53° |
| 2026-05-05 17:31 | 46.51699 | 6.36655 | 6996 ft | 250 kts | 53° |
| 2026-05-05 17:32 | 46.52744 | 6.38675 | 6985 ft | 249 kts | 60° |
| 2026-05-05 17:32 | 46.53220 | 6.41014 | 6989 ft | 239 kts | 96° |
| 2026-05-05 17:32 | 46.52799 | 6.43245 | 6995 ft | 225 kts | 129° |
| 2026-05-05 17:32 | 46.51799 | 6.44940 | 7004 ft | 220 kts | 142° |
| 2026-05-05 17:33 | 46.50696 | 6.46430 | 6795 ft | 213 kts | 153° |
| 2026-05-05 17:33 | 46.49357 | 6.46951 | 6585 ft | 194 kts | 187° |
| 2026-05-05 17:33 | 46.48087 | 6.46484 | 6317 ft | 187 kts | 210° |
| 2026-05-05 17:33 | 46.47087 | 6.45317 | 6042 ft | 184 kts | 227° |
| 2026-05-05 17:34 | 46.46191 | 6.43982 | 6011 ft | 183 kts | 226° |
| 2026-05-05 17:34 | 46.45306 | 6.42666 | 5995 ft | 182 kts | 226° |
| 2026-05-05 17:34 | 46.44412 | 6.41337 | 5996 ft | 184 kts | 226° |
| 2026-05-05 17:34 | 46.43516 | 6.40006 | 5996 ft | 185 kts | 226° |
| 2026-05-05 17:35 | 46.42615 | 6.38669 | 6001 ft | 184 kts | 226° |
| 2026-05-05 17:35 | 46.41725 | 6.37348 | 5964 ft | 183 kts | 226° |
| 2026-05-05 17:35 | 46.40832 | 6.36023 | 5797 ft | 185 kts | 226° |
| 2026-05-05 17:35 | 46.39936 | 6.34696 | 5577 ft | 183 kts | 226° |
| 2026-05-05 17:36 | 46.39066 | 6.33407 | 5323 ft | 179 kts | 226° |
| 2026-05-05 17:36 | 46.38203 | 6.32129 | 5095 ft | 176 kts | 226° |
| 2026-05-05 17:36 | 46.37348 | 6.30863 | 4866 ft | 175 kts | 226° |
| 2026-05-05 17:36 | 46.36496 | 6.29603 | 4637 ft | 176 kts | 225° |
| 2026-05-05 17:37 | 46.35646 | 6.28346 | 4410 ft | 172 kts | 226° |
| 2026-05-05 17:37 | 46.35097 | 6.27534 | 4268 ft | 170 kts | 226° |
| 2026-05-05 17:37 | 46.34009 | 6.25927 | 3940 ft | 164 kts | 226° |
| 2026-05-05 17:37 | 46.33213 | 6.24751 | 3723 ft | 164 kts | 225° |
| 2026-05-05 17:38 | 46.32414 | 6.23572 | 3505 ft | 164 kts | 225° |
| 2026-05-05 17:38 | 46.31644 | 6.22436 | 3294 ft | 155 kts | 225° |
| 2026-05-05 17:38 | 46.30895 | 6.21331 | 3096 ft | 155 kts | 225° |
| 2026-05-05 17:38 | 46.30138 | 6.20214 | 2880 ft | 155 kts | 224° |
| 2026-05-05 17:39 | 46.29405 | 6.19134 | 2661 ft | 146 kts | 225° |
| 2026-05-05 17:39 | 46.28717 | 6.18121 | 2456 ft | 137 kts | 224° |
| 2026-05-05 17:39 | 46.28053 | 6.17143 | 2268 ft | 135 kts | 225° |
| 2026-05-05 17:39 | 46.27397 | 6.16180 | 2076 ft | 133 kts | 225° |
| 2026-05-05 17:40 | 46.26745 | 6.15223 | 1912 ft | 132 kts | 225° |
| 2026-05-05 17:40 | 46.26101 | 6.14264 | 1734 ft | 134 kts | 226° |
| 2026-05-05 17:40 | 46.25455 | 6.13319 | 1538 ft | 132 kts | 222° |
| 2026-05-05 17:40 | 46.24803 | 6.12366 | 1385 ft | 131 kts | 224° |
| 2026-05-05 17:41 | 46.24255 | 6.11553 | 1374 ft | 81 kts | 226° |
| 2026-05-05 17:41 | 46.24030 | 6.11225 | 1377 ft | 31 kts | 225° |
| 2026-05-05 17:41 | 46.23901 | 6.11034 | 1378 ft | 26 kts | 226° |
| 2026-05-05 17:41 | 46.23764 | 6.10843 | 1382 ft | 29 kts | 216° |
| 2026-05-05 17:42 | 46.23589 | 6.10725 | 1384 ft | 21 kts | 195° |
| 2026-05-05 17:42 | 46.23481 | 6.10681 | 1389 ft | 14 kts | 195° |
| 2026-05-05 17:42 | 46.23400 | 6.10729 | 1397 ft | 14 kts | 135° |
| 2026-05-05 17:42 | 46.23350 | 6.10804 | 1396 ft | 7 kts | 124° |
| 2026-05-05 17:43 | 46.23363 | 6.10858 | 1400 ft | 7 kts | 46° |
| 2026-05-05 17:43 | 46.23409 | 6.10925 | 1393 ft | 12 kts | 44° |
| 2026-05-05 17:43 | 46.23464 | 6.11006 | 1393 ft | 11 kts | 47° |
| 2026-05-05 17:43 | 46.23461 | 6.11075 | 1395 ft | 8 kts | 136° |
| 2026-05-05 17:44 | 46.23435 | 6.11112 | 1393 ft | 2 kts | 136° |
| 2026-05-05 17:44 | 46.23433 | 6.11114 | 1393 ft | 0 kts | 135° |